Time;durP1;ratioP1;P1;durP2;ratioP2;P2;SDS_P1;SDS_P2;PMS_P1;PMS_P2;Temp;Humidity;BMP_temperature;BMP_pressure;BME280_temperature;BME280_humidity;BME280_pressure;Samples;Min_cycle;Max_cycle;Signal;HPM_P1;HPM_P2
2023/06/20 00:01:45;;;;;;;0.00;0.00;;;;;;;20.77;100.00;96264.53;5005821;28;20121;-77
2023/06/20 00:04:33;;;;;;;0.00;0.00;;;;;;;20.71;100.00;96268.56;5006825;28;20056;-78
2023/06/20 00:07:19;;;;;;;0.00;0.00;;;;;;;20.65;100.00;96272.53;5009191;28;20048;-78
2023/06/20 00:10:05;;;;;;;0.10;0.10;;;;;;;20.61;100.00;96273.47;5005682;28;20041;-77
2023/06/20 00:12:51;;;;;;;0.00;0.00;;;;;;;20.58;100.00;96264.84;5004292;28;20151;-76
2023/06/20 00:15:37;;;;;;;0.00;0.00;;;;;;;20.57;100.00;96271.41;4987694;28;20048;-79
2023/06/20 00:18:24;;;;;;;0.00;0.00;;;;;;;20.33;100.00;96272.91;5006298;28;20116;-77
2023/06/20 00:21:09;;;;;;;0.00;0.00;;;;;;;20.27;100.00;96272.25;5006160;28;20041;-78
2023/06/20 00:23:55;;;;;;;0.00;0.00;;;;;;;20.41;100.00;96266.69;5006779;28;20033;-76
2023/06/20 00:26:41;;;;;;;0.00;0.00;;;;;;;20.30;100.00;96272.41;5004849;28;20045;-78
2023/06/20 00:29:27;;;;;;;0.00;0.00;;;;;;;20.16;100.00;96273.66;5006143;28;20049;-76
2023/06/20 00:32:13;;;;;;;0.00;0.00;;;;;;;20.21;100.00;96282.44;5007211;28;20378;-75
2023/06/20 00:34:58;;;;;;;0.00;0.00;;;;;;;20.33;100.00;96283.78;5003469;28;20691;-76
2023/06/20 00:37:44;;;;;;;0.00;0.00;;;;;;;20.37;100.00;96284.72;4988558;28;20049;-77
2023/06/20 00:40:32;;;;;;;0.00;0.00;;;;;;;20.36;100.00;96283.13;4995460;28;20033;-76
2023/06/20 00:43:18;;;;;;;0.00;0.00;;;;;;;20.30;100.00;96291.44;5005873;28;20128;-76
2023/06/20 00:46:04;;;;;;;0.00;0.00;;;;;;;20.25;100.00;96290.78;5006193;28;20610;-76
2023/06/20 00:48:50;;;;;;;0.00;0.00;;;;;;;20.08;100.00;96293.41;5002992;28;20065;-76
2023/06/20 00:51:37;;;;;;;0.00;0.00;;;;;;;19.84;100.00;96296.50;4992706;28;20049;-76
2023/06/20 00:54:23;;;;;;;0.00;0.00;;;;;;;19.60;100.00;96303.06;5005096;28;20038;-77
2023/06/20 00:57:14;;;;;;;0.00;0.00;;;;;;;19.33;100.00;96300.47;4990721;28;20056;-77
2023/06/20 01:00:00;;;;;;;;;;;;;;;19.26;100.00;96298.16;5005461;28;20044;-76
2023/06/20 01:02:46;;;;;;;0.10;0.10;;;;;;;19.03;100.00;96299.25;5000927;28;19921;-76
2023/06/20 01:05:34;;;;;;;0.05;0.05;;;;;;;19.00;100.00;96303.41;4997900;28;20159;-76
2023/06/20 01:08:39;;;;;;;0.00;0.00;;;;;;;18.92;100.00;96304.13;5010275;28;20069;-77
2023/06/20 01:11:34;;;;;;;0.00;0.00;;;;;;;19.06;100.00;96285.06;5007846;28;20104;-76
2023/06/20 01:14:59;;;;;;;0.00;0.00;;;;;;;19.17;100.00;96287.25;5009370;28;20037;-76
2023/06/20 01:17:45;;;;;;;0.03;0.03;;;;;;;19.38;100.00;96284.06;4992969;28;20042;-76
2023/06/20 01:20:36;;;;;;;0.00;0.00;;;;;;;19.42;100.00;96282.31;4999686;28;20042;-77
2023/06/20 01:23:32;;;;;;;0.00;0.00;;;;;;;19.40;100.00;96268.28;5009163;28;20100;-77
2023/06/20 01:26:33;;;;;;;0.00;0.00;;;;;;;19.42;100.00;96272.28;4997217;28;20184;-77
2023/06/20 01:33:38;;;;;;;0.00;0.00;;;;;;;19.30;100.00;96268.50;5006186;28;20044;-76
2023/06/20 01:36:29;;;;;;;0.00;0.00;;;;;;;19.09;100.00;96262.78;5010169;28;20133;-76
2023/06/20 01:39:24;;;;;;;0.08;0.00;;;;;;;18.91;100.00;96262.66;5007303;28;20041;-76
2023/06/20 01:42:11;;;;;;;0.00;0.00;;;;;;;18.93;100.00;96256.94;4997990;28;20037;-77
2023/06/20 01:45:01;;;;;;;0.00;0.00;;;;;;;18.91;100.00;96253.72;5011529;28;21964;-76
2023/06/20 01:47:50;;;;;;;0.00;0.00;;;;;;;18.70;100.00;96255.28;5011695;28;20053;-76
2023/06/20 01:50:38;;;;;;;0.05;0.05;;;;;;;18.74;100.00;96256.25;5030284;28;20051;-77
2023/06/20 01:53:25;;;;;;;0.00;0.00;;;;;;;18.95;100.00;96252.00;5011911;28;20039;-76
2023/06/20 01:56:12;;;;;;;0.00;0.00;;;;;;;19.05;100.00;96254.44;5027394;28;20524;-77
2023/06/20 01:59:00;;;;;;;0.08;0.08;;;;;;;19.17;100.00;96249.28;5014414;28;20048;-77
2023/06/20 02:01:48;;;;;;;0.00;0.00;;;;;;;19.14;100.00;96238.25;5026547;28;20487;-76
2023/06/20 02:04:35;;;;;;;0.00;0.00;;;;;;;19.15;100.00;96231.75;5003031;28;20792;-77
2023/06/20 02:07:21;;;;;;;0.00;0.00;;;;;;;18.93;100.00;96224.41;5029444;28;20079;-77
2023/06/20 02:10:10;;;;;;;0.00;0.00;;;;;;;18.75;100.00;96212.59;5029815;28;20045;-77
2023/06/20 02:12:57;;;;;;;0.10;0.10;;;;;;;18.57;100.00;96224.38;5027610;28;20045;-77
2023/06/20 02:15:48;;;;;;;0.00;0.00;;;;;;;18.61;100.00;96220.75;5012617;28;20565;-78
2023/06/20 02:18:34;;;;;;;;;;;;;;;18.76;100.00;96229.69;5013125;28;20048;-77
2023/06/20 02:21:25;;;;;;;0.10;0.10;;;;;;;18.88;100.00;96217.16;5015385;28;19936;-78
2023/06/20 02:24:18;;;;;;;0.08;0.08;;;;;;;18.91;100.00;96232.03;5011904;28;20052;-77
2023/06/20 02:27:07;;;;;;;0.00;0.00;;;;;;;18.64;100.00;96220.13;5018976;28;20043;-77
2023/06/20 02:29:56;;;;;;;0.05;0.05;;;;;;;18.59;100.00;96225.66;5027880;28;20614;-77
2023/06/20 02:32:44;;;;;;;0.00;0.00;;;;;;;18.62;100.00;96213.41;5022441;28;20403;-78
2023/06/20 02:35:32;;;;;;;0.00;0.00;;;;;;;18.45;100.00;96218.69;5022380;28;20048;-77
2023/06/20 02:38:18;;;;;;;0.00;0.00;;;;;;;18.42;100.00;96216.56;5029269;28;20037;-77
2023/06/20 02:41:06;;;;;;;0.00;0.00;;;;;;;18.33;100.00;96219.19;5030126;28;20167;-77
2023/06/20 02:43:52;;;;;;;0.00;0.00;;;;;;;18.54;100.00;96214.94;5026983;28;20052;-77
2023/06/20 02:46:44;;;;;;;0.00;0.00;;;;;;;18.67;100.00;96207.09;5014427;28;20133;-78
2023/06/20 02:49:45;;;;;;;0.10;0.10;;;;;;;18.74;100.00;96215.59;5027605;28;20144;-78
2023/06/20 02:52:49;;;;;;;0.00;0.00;;;;;;;18.90;100.00;96227.69;5002889;28;20041;-77
2023/06/20 02:56:10;;;;;;;0.05;0.05;;;;;;;18.97;100.00;96233.50;5028170;28;20035;-78
2023/06/20 02:58:56;;;;;;;0.00;0.00;;;;;;;18.91;100.00;96227.41;4978676;28;20061;-78
2023/06/20 03:01:47;;;;;;;0.08;0.08;;;;;;;18.98;100.00;96235.09;5003015;28;20575;-77
2023/06/20 03:04:34;;;;;;;0.10;0.10;;;;;;;18.98;100.00;96237.00;5028456;28;20052;-77
2023/06/20 03:07:20;;;;;;;0.05;0.05;;;;;;;19.02;100.00;96225.25;5011733;28;20583;-77
2023/06/20 03:10:07;;;;;;;0.00;0.00;;;;;;;19.00;100.00;96227.47;5000860;28;20075;-77
2023/06/20 03:12:53;;;;;;;0.00;0.00;;;;;;;18.98;100.00;96218.03;5007053;28;20047;-77
2023/06/20 03:15:40;;;;;;;0.10;0.10;;;;;;;18.89;100.00;96226.91;5004603;28;20575;-78
2023/06/20 03:18:29;;;;;;;0.05;0.05;;;;;;;18.96;100.00;96226.47;5013489;28;21005;-77
2023/06/20 03:21:15;;;;;;;0.00;0.00;;;;;;;18.94;100.00;96223.28;5011886;28;20136;-78
2023/06/20 03:24:01;;;;;;;0.00;0.00;;;;;;;18.93;100.00;96219.78;4995517;28;20068;-78
2023/06/20 03:26:49;;;;;;;0.10;0.10;;;;;;;18.80;100.00;96217.91;5011344;28;20044;-77
2023/06/20 03:29:35;;;;;;;0.00;0.00;;;;;;;18.66;100.00;96214.44;5012564;28;20045;-79
2023/06/20 03:32:21;;;;;;;0.00;0.00;;;;;;;18.76;100.00;96213.41;5012954;28;20048;-77
2023/06/20 03:35:08;;;;;;;0.00;0.00;;;;;;;18.77;100.00;96215.00;5012309;28;20095;-77
2023/06/20 03:37:53;;;;;;;0.10;0.10;;;;;;;18.73;100.00;96216.72;5012662;28;20120;-77
2023/06/20 03:40:40;;;;;;;0.00;0.00;;;;;;;18.73;100.00;96214.81;5002797;28;20431;-79
2023/06/20 03:43:26;;;;;;;0.00;0.00;;;;;;;18.56;100.00;96215.44;5007960;28;20037;-78
2023/06/20 03:46:12;;;;;;;0.08;0.08;;;;;;;18.36;100.00;96213.16;5010827;28;20132;-78
2023/06/20 03:48:57;;;;;;;0.10;0.10;;;;;;;18.26;100.00;96224.22;5010961;28;20041;-78
2023/06/20 03:55:51;;;;;;;0.10;0.10;;;;;;;18.22;100.00;96229.44;5023194;28;20045;-78
2023/06/20 03:58:39;;;;;;;0.00;0.00;;;;;;;18.47;100.00;96230.81;5012699;28;20036;-77
2023/06/20 04:01:25;;;;;;;0.00;0.00;;;;;;;18.68;100.00;96224.97;5029040;28;20048;-78
2023/06/20 04:04:12;;;;;;;0.00;0.00;;;;;;;18.77;100.00;96225.84;5014216;28;20044;-78
2023/06/20 04:06:58;;;;;;;0.00;0.00;;;;;;;18.67;100.00;96223.34;5012977;28;20052;-77
2023/06/20 04:09:50;;;;;;;0.00;0.00;;;;;;;18.75;100.00;96228.06;5025724;28;20761;-78
2023/06/20 04:12:37;;;;;;;0.00;0.00;;;;;;;18.79;100.00;96231.75;5027204;28;20130;-77
2023/06/20 04:15:22;;;;;;;0.00;0.00;;;;;;;18.58;100.00;96240.31;5025147;28;20419;-77
2023/06/20 04:31:17;;;;;;;0.00;0.00;;;;;;;18.30;100.00;96296.44;5133388;22;20428;-78
2023/06/20 04:34:03;;;;;;;0.00;0.00;;;;;;;18.39;100.00;96277.56;5077738;28;20089;-78
2023/06/20 04:36:50;;;;;;;0.05;0.05;;;;;;;18.48;100.00;96281.19;5048797;28;20079;-78
2023/06/20 04:39:36;;;;;;;0.00;0.00;;;;;;;18.33;100.00;96292.31;5066838;28;20398;-78
2023/06/20 04:42:22;;;;;;;0.10;0.10;;;;;;;18.14;100.00;96314.09;5054398;28;20037;-78
2023/06/20 04:45:10;;;;;;;0.10;0.10;;;;;;;17.73;100.00;96332.97;5066943;28;20048;-77
2023/06/20 04:47:57;;;;;;;0.10;0.10;;;;;;;17.61;100.00;96321.78;5065259;28;20072;-77
2023/06/20 04:50:42;;;;;;;0.00;0.00;;;;;;;17.39;100.00;96298.88;5055093;28;20072;-77
2023/06/20 04:53:28;;;;;;;0.10;0.10;;;;;;;17.32;100.00;96297.63;5050740;28;20041;-74
2023/06/20 04:56:15;;;;;;;0.00;0.00;;;;;;;17.57;100.00;96305.31;5053894;28;20044;-77
2023/06/20 04:59:01;;;;;;;0.00;0.00;;;;;;;17.79;100.00;96323.66;5050611;28;20501;-77
2023/06/20 05:01:51;;;;;;;0.10;0.10;;;;;;;17.86;100.00;96334.91;5051942;28;22166;-77
2023/06/20 05:04:37;;;;;;;0.10;0.10;;;;;;;17.88;100.00;96331.91;5050982;28;20135;-77
2023/06/20 05:07:23;;;;;;;0.10;0.10;;;;;;;17.88;100.00;96324.56;5038999;28;20045;-78
2023/06/20 05:10:09;;;;;;;0.10;0.10;;;;;;;17.88;100.00;96321.88;5051701;28;20044;-76
2023/06/20 05:12:55;;;;;;;0.00;0.00;;;;;;;17.71;100.00;96330.56;5061304;28;20063;-77
2023/06/20 05:15:41;;;;;;;0.10;0.10;;;;;;;17.68;100.00;96349.28;5054424;28;20041;-77
2023/06/20 05:18:27;;;;;;;0.10;0.10;;;;;;;17.50;100.00;96342.78;5052467;28;20151;-78
2023/06/20 05:21:31;;;;;;;0.00;0.00;;;;;;;17.61;100.00;96341.53;5054962;28;20036;-77
2023/06/20 05:24:17;;;;;;;0.00;0.00;;;;;;;17.75;100.00;96349.72;5052191;28;20075;-76
2023/06/20 05:27:03;;;;;;;0.10;0.10;;;;;;;17.79;100.00;96345.31;5052795;28;20078;-77
2023/06/20 05:29:49;;;;;;;0.10;0.10;;;;;;;17.92;100.00;96339.13;5045873;28;20793;-77
2023/06/20 05:32:35;;;;;;;0.10;0.10;;;;;;;17.98;100.00;96350.69;5037090;28;20137;-77
2023/06/20 05:35:21;;;;;;;0.10;0.10;;;;;;;18.00;100.00;96343.06;5037558;28;20154;-78
2023/06/20 05:38:06;;;;;;;0.10;0.10;;;;;;;18.03;100.00;96337.84;5033871;28;20037;-78
2023/06/20 05:40:54;;;;;;;0.10;0.10;;;;;;;17.89;100.00;96326.19;5038205;28;20875;-77
2023/06/20 05:43:40;;;;;;;0.10;0.10;;;;;;;17.84;100.00;96317.38;5035580;28;20676;-77
2023/06/20 05:46:26;;;;;;;0.10;0.10;;;;;;;17.87;100.00;96319.47;5056606;28;20123;-77
2023/06/20 05:49:14;;;;;;;0.03;0.03;;;;;;;17.87;100.00;96308.63;5039601;28;20041;-77
2023/06/20 05:52:00;;;;;;;0.10;0.10;;;;;;;17.76;100.00;96303.41;5037567;28;20497;-78
2023/06/20 05:54:46;;;;;;;0.10;0.10;;;;;;;17.93;100.00;96302.03;5037253;28;20140;-77
2023/06/20 05:57:32;;;;;;;0.10;0.10;;;;;;;18.13;100.00;96293.50;5038895;28;20041;-78
2023/06/20 06:00:18;;;;;;;0.10;0.10;;;;;;;18.14;100.00;96297.06;5038281;28;20748;-78
2023/06/20 06:03:04;;;;;;;0.10;0.10;;;;;;;18.25;100.00;96282.19;5037522;28;20041;-77
2023/06/20 06:05:49;;;;;;;0.10;0.10;;;;;;;18.21;100.00;96286.59;5037612;28;20143;-77
2023/06/20 06:08:36;;;;;;;0.10;0.10;;;;;;;18.42;100.00;96279.66;5037300;28;20041;-77
2023/06/20 06:11:22;;;;;;;0.17;0.17;;;;;;;18.12;100.00;96289.22;5036758;28;20052;-77
2023/06/20 06:14:07;;;;;;;0.10;0.10;;;;;;;18.40;100.00;96294.63;5037987;28;20135;-78
2023/06/20 06:16:55;;;;;;;0.10;0.10;;;;;;;18.70;100.00;96298.66;5037222;28;20036;-77
2023/06/20 06:19:40;;;;;;;0.10;0.10;;;;;;;19.00;100.00;96292.56;5037282;28;20118;-76
2023/06/20 06:22:26;;;;;;;0.10;0.10;;;;;;;19.27;100.00;96285.41;5039857;28;20115;-77
2023/06/20 06:25:12;;;;;;;0.10;0.10;;;;;;;19.52;100.00;96292.91;5038267;28;20091;-77
2023/06/20 06:27:58;;;;;;;0.10;0.10;;;;;;;19.60;100.00;96286.78;5050302;28;20075;-77
2023/06/20 06:30:44;;;;;;;0.10;0.10;;;;;;;19.57;100.00;96284.69;5033114;28;20045;-77
2023/06/20 06:33:30;;;;;;;0.00;0.00;;;;;;;19.52;100.00;96286.69;5032457;28;20041;-78
2023/06/20 06:36:16;;;;;;;0.10;0.10;;;;;;;19.21;100.00;96282.81;5041029;28;20080;-78
2023/06/20 06:39:03;;;;;;;0.10;0.10;;;;;;;18.99;100.00;96279.28;5039991;28;20480;-77
2023/06/20 06:41:49;;;;;;;0.10;0.10;;;;;;;19.02;100.00;96274.06;5034518;28;21646;-77
2023/06/20 06:44:35;;;;;;;0.10;0.10;;;;;;;18.89;100.00;96278.41;5030494;28;20072;-77
2023/06/20 06:47:21;;;;;;;0.10;0.10;;;;;;;18.81;100.00;96287.25;5039317;28;20048;-77
2023/06/20 06:50:07;;;;;;;0.08;0.08;;;;;;;19.09;100.00;96290.72;5034247;28;20048;-77
2023/06/20 06:52:53;;;;;;;0.15;0.15;;;;;;;19.44;100.00;96280.09;5034075;28;20100;-77
2023/06/20 06:55:45;;;;;;;0.10;0.10;;;;;;;19.71;100.00;96282.72;5035488;28;20037;-78
2023/06/20 06:58:30;;;;;;;0.10;0.10;;;;;;;19.65;100.00;96281.22;5031270;28;20048;-78
2023/06/20 07:01:17;;;;;;;0.08;0.08;;;;;;;19.53;100.00;96275.53;5029625;28;20584;-77
2023/06/20 07:04:03;;;;;;;0.10;0.10;;;;;;;19.61;100.00;96282.16;5049465;28;20048;-77
2023/06/20 07:06:49;;;;;;;0.10;0.10;;;;;;;19.67;100.00;96279.00;5034433;28;21147;-76
2023/06/20 07:09:36;;;;;;;0.00;0.00;;;;;;;19.75;100.00;96272.00;5034876;28;20577;-77
2023/06/20 07:12:22;;;;;;;0.10;0.10;;;;;;;19.80;100.00;96271.09;5035577;28;20044;-78
2023/06/20 07:15:08;;;;;;;0.10;0.10;;;;;;;19.70;100.00;96270.25;5037068;28;20036;-78
2023/06/20 07:17:54;;;;;;;0.10;0.10;;;;;;;19.78;100.00;96262.47;5033410;28;20045;-77
2023/06/20 07:20:40;;;;;;;0.10;0.10;;;;;;;19.93;100.00;96259.34;5035084;28;20040;-77
2023/06/20 07:23:26;;;;;;;0.10;0.10;;;;;;;20.03;100.00;96264.50;5031569;28;20037;-77
2023/06/20 07:26:11;;;;;;;0.10;0.10;;;;;;;20.21;100.00;96268.06;5036370;28;20052;-76
2023/06/20 07:28:57;;;;;;;0.10;0.10;;;;;;;20.25;100.00;96264.41;5036743;28;20704;-78
2023/06/20 07:31:43;;;;;;;0.10;0.10;;;;;;;20.41;100.00;96253.13;5033124;28;20486;-77
2023/06/20 07:34:29;;;;;;;0.17;0.17;;;;;;;20.50;100.00;96256.69;5035588;28;20526;-78
2023/06/20 07:37:15;;;;;;;0.10;0.10;;;;;;;20.56;100.00;96245.34;5034072;28;20127;-77
2023/06/20 07:40:05;;;;;;;0.10;0.10;;;;;;;20.69;100.00;96242.78;5036043;28;20140;-78
2023/06/20 07:42:51;;;;;;;0.10;0.10;;;;;;;20.36;100.00;96251.34;5037073;28;20052;-77
2023/06/20 07:45:37;;;;;;;0.10;0.10;;;;;;;20.58;100.00;96253.97;5040379;28;20042;-78
2023/06/20 07:48:24;;;;;;;0.10;0.10;;;;;;;20.81;100.00;96248.41;5037679;28;20036;-78
2023/06/20 07:51:10;;;;;;;0.10;0.10;;;;;;;20.71;100.00;96251.44;5036144;28;20049;-77
2023/06/20 07:53:56;;;;;;;0.10;0.10;;;;;;;20.68;100.00;96260.22;5038629;28;20051;-77
2023/06/20 07:56:42;;;;;;;0.00;0.00;;;;;;;20.52;100.00;96254.44;5036247;28;20056;-78
2023/06/20 07:59:28;;;;;;;0.10;0.10;;;;;;;20.66;100.00;96252.38;5053068;28;20037;-78
2023/06/20 08:02:13;;;;;;;0.10;0.10;;;;;;;20.79;100.00;96250.66;5020878;28;20033;-77
2023/06/20 08:04:59;;;;;;;0.10;0.10;;;;;;;20.75;100.00;96263.28;5037447;28;20318;-77
2023/06/20 08:07:45;;;;;;;0.10;0.10;;;;;;;20.65;100.00;96250.78;5035074;28;20044;-77
2023/06/20 08:10:31;;;;;;;0.10;0.10;;;;;;;20.67;100.00;96243.09;5033539;28;20142;-79
2023/06/20 08:13:17;;;;;;;0.10;0.10;;;;;;;20.78;100.00;96247.13;5023687;28;20406;-77
2023/06/20 08:16:03;;;;;;;0.10;0.10;;;;;;;21.02;100.00;96240.44;5034451;28;20605;-77
2023/06/20 08:18:49;;;;;;;0.10;0.10;;;;;;;21.17;100.00;96250.81;5034473;28;20049;-78
2023/06/20 08:21:34;;;;;;;0.10;0.10;;;;;;;21.14;100.00;96246.00;5035961;28;20133;-77
2023/06/20 08:24:20;;;;;;;0.10;0.10;;;;;;;21.04;100.00;96255.28;5020237;28;20044;-78
2023/06/20 08:27:06;;;;;;;0.10;0.10;;;;;;;21.00;100.00;96259.75;5033178;28;20563;-79
2023/06/20 08:29:52;;;;;;;0.10;0.10;;;;;;;21.22;100.00;96256.06;5036373;28;20044;-78
2023/06/20 08:32:41;;;;;;;0.10;0.10;;;;;;;21.21;100.00;96253.69;5031527;28;20498;-78
2023/06/20 08:35:27;;;;;;;0.10;0.10;;;;;;;21.42;100.00;96247.28;5036820;28;20494;-78
2023/06/20 08:38:13;;;;;;;0.08;0.08;;;;;;;21.41;100.00;96251.13;5037969;28;20098;-78
2023/06/20 08:40:59;;;;;;;0.00;0.00;;;;;;;21.65;100.00;96255.25;5036969;28;20119;-78
2023/06/20 08:43:45;;;;;;;0.10;0.10;;;;;;;21.55;100.00;96256.38;5034384;28;20176;-77
2023/06/20 08:46:31;;;;;;;0.10;0.10;;;;;;;21.95;100.00;96246.03;5037899;28;20049;-79
2023/06/20 08:49:17;;;;;;;0.10;0.10;;;;;;;22.18;100.00;96249.34;5034396;28;20083;-77
2023/06/20 08:52:10;;;;;;;0.10;0.10;;;;;;;22.33;100.00;96258.06;5037131;28;21490;-77
2023/06/20 08:54:56;;;;;;;0.10;0.10;;;;;;;22.29;100.00;96263.38;5035190;28;20037;-78
2023/06/20 08:57:45;;;;;;;0.00;0.00;;;;;;;22.48;100.00;96261.00;5035885;28;20659;-78
2023/06/20 09:00:31;;;;;;;0.10;0.10;;;;;;;22.10;100.00;96261.06;5035949;28;20051;-79
2023/06/20 09:03:17;;;;;;;0.10;0.10;;;;;;;22.11;100.00;96265.38;5038424;28;20122;-76
2023/06/20 09:06:03;;;;;;;0.10;0.10;;;;;;;22.52;100.00;96272.06;5007145;28;20103;-76
2023/06/20 09:08:49;;;;;;;0.00;0.00;;;;;;;22.50;100.00;96266.16;5039427;28;20103;-77
2023/06/20 09:11:36;;;;;;;0.10;0.10;;;;;;;23.07;100.00;96266.44;5041789;28;20044;-77
2023/06/20 09:14:29;;;;;;;0.10;0.10;;;;;;;23.12;100.00;96262.72;5028982;28;20040;-77
2023/06/20 09:17:16;;;;;;;0.10;0.10;;;;;;;23.26;100.00;96267.88;5052728;28;20052;-77
2023/06/20 09:20:04;;;;;;;0.10;0.10;;;;;;;23.18;100.00;96264.09;5053391;28;20569;-78
2023/06/20 09:22:50;;;;;;;0.10;0.10;;;;;;;22.94;100.00;96274.88;5037531;28;20114;-77
2023/06/20 09:25:39;;;;;;;0.00;0.00;;;;;;;23.30;100.00;96266.88;5033706;28;20571;-77
2023/06/20 09:28:32;;;;;;;0.10;0.10;;;;;;;23.70;100.00;96274.56;5035207;28;20171;-77
2023/06/20 09:31:19;;;;;;;0.10;0.10;;;;;;;23.68;100.00;96281.50;5038041;28;20242;-77
2023/06/20 09:34:08;;;;;;;0.10;0.10;;;;;;;23.20;100.00;96278.22;5038237;28;20491;-78
2023/06/20 09:36:58;;;;;;;0.10;0.10;;;;;;;23.22;100.00;96269.69;5035072;28;20045;-77
2023/06/20 09:39:44;;;;;;;0.10;0.10;;;;;;;23.76;100.00;96264.22;5007775;28;20045;-77
2023/06/20 09:42:30;;;;;;;0.10;0.10;;;;;;;23.93;100.00;96268.69;5040099;28;20518;-78
2023/06/20 09:45:17;;;;;;;0.10;0.10;;;;;;;23.85;100.00;96273.13;5039530;28;20041;-78
2023/06/20 09:48:04;;;;;;;0.00;0.00;;;;;;;24.52;100.00;96262.88;5037397;28;20037;-77
2023/06/20 09:50:50;;;;;;;0.00;0.00;;;;;;;24.64;100.00;96263.63;5039920;28;20057;-77
2023/06/20 09:54:03;;;;;;;0.10;0.10;;;;;;;24.70;100.00;96261.47;5036199;28;20044;-77
2023/06/20 09:56:56;;;;;;;0.05;0.05;;;;;;;24.48;100.00;96259.22;5037536;28;20056;-77
2023/06/20 09:59:42;;;;;;;0.10;0.10;;;;;;;24.93;100.00;96262.56;5036790;28;20123;-77
2023/06/20 10:02:30;;;;;;;0.10;0.10;;;;;;;25.40;100.00;96267.47;5037707;28;20037;-77
2023/06/20 10:05:19;;;;;;;0.03;0.03;;;;;;;25.60;100.00;96249.22;5042309;28;20076;-77
2023/06/20 10:08:06;;;;;;;0.00;0.00;;;;;;;25.55;100.00;96260.44;5040808;28;20151;-77
2023/06/20 10:10:52;;;;;;;0.10;0.10;;;;;;;25.65;100.00;96250.91;5040076;28;21437;-78
2023/06/20 10:13:38;;;;;;;0.10;0.10;;;;;;;25.53;100.00;96243.56;5037791;28;20074;-77
2023/06/20 10:16:28;;;;;;;0.10;0.10;;;;;;;25.41;100.00;96255.38;5037651;28;20033;-77
2023/06/20 10:19:18;;;;;;;0.10;0.10;;;;;;;24.75;100.00;96258.50;5052562;28;20127;-77
2023/06/20 10:22:04;;;;;;;0.10;0.10;;;;;;;24.59;100.00;96255.69;5038107;28;20059;-78
2023/06/20 10:24:50;;;;;;;0.10;0.10;;;;;;;24.52;100.00;96257.41;5024406;28;20045;-77
2023/06/20 10:27:36;;;;;;;0.10;0.10;;;;;;;24.69;100.00;96252.47;5046784;28;20057;-79
2023/06/20 10:30:53;;;;;;;0.00;0.00;;;;;;;24.68;100.00;96250.88;5051056;28;20057;-78
2023/06/20 10:33:39;;;;;;;0.10;0.10;;;;;;;25.23;100.00;96249.41;5030944;28;20048;-79
2023/06/20 10:36:31;;;;;;;0.10;0.10;;;;;;;25.80;100.00;96253.72;5027068;28;20054;-79
2023/06/20 10:39:17;;;;;;;0.00;0.00;;;;;;;26.46;100.00;96252.28;5011607;28;20042;-78
2023/06/20 10:42:06;;;;;;;0.10;0.10;;;;;;;26.14;100.00;96254.19;5032028;28;20124;-79
2023/06/20 10:45:25;;;;;;;0.10;0.10;;;;;;;26.17;100.00;96255.44;5028147;28;20056;-79
2023/06/20 10:48:11;;;;;;;0.10;0.10;;;;;;;26.27;100.00;96239.22;5037816;28;20025;-76
2023/06/20 10:51:00;;;;;;;0.10;0.10;;;;;;;25.99;100.00;96249.47;5035950;28;20101;-77
2023/06/20 10:53:46;;;;;;;0.10;0.10;;;;;;;26.07;100.00;96243.06;5031682;28;20132;-78
2023/06/20 11:04:36;;;;;;;0.10;0.10;;;;;;;27.24;100.00;96231.28;5030181;28;20037;-78
2023/06/20 11:07:23;;;;;;;0.10;0.10;;;;;;;27.33;100.00;96223.59;5037093;28;20071;-77
2023/06/20 11:10:13;;;;;;;0.10;0.10;;;;;;;27.58;100.00;96228.78;5037373;28;20167;-77
2023/06/20 11:13:01;;;;;;;0.10;0.10;;;;;;;28.32;97.75;96223.81;5032039;28;20506;-76
2023/06/20 11:15:47;;;;;;;0.10;0.10;;;;;;;28.35;98.32;96236.84;5051488;28;20106;-77
2023/06/20 11:18:34;;;;;;;0.10;0.10;;;;;;;27.62;98.31;96243.34;5040237;28;20123;-77
2023/06/20 11:21:20;;;;;;;0.05;0.05;;;;;;;27.37;100.00;96235.44;5034617;28;20043;-78
2023/06/20 11:24:06;;;;;;;0.00;0.00;;;;;;;28.18;96.45;96242.84;5038001;28;20056;-78
2023/06/20 11:26:51;;;;;;;0.10;0.10;;;;;;;28.68;96.36;96238.94;5048048;28;20075;-78
2023/06/20 11:29:37;;;;;;;0.00;0.00;;;;;;;29.15;90.04;96232.13;5034396;28;20041;-78
2023/06/20 11:32:23;;;;;;;0.10;0.10;;;;;;;30.34;88.07;96233.00;5037834;28;20442;-76
2023/06/20 11:35:09;;;;;;;0.10;0.10;;;;;;;29.41;89.22;96229.28;5036159;28;20052;-78
2023/06/20 11:37:55;;;;;;;0.10;0.10;;;;;;;31.30;83.86;96224.59;5022150;28;20056;-78
2023/06/20 11:41:15;;;;;;;0.10;0.10;;;;;;;33.10;76.26;96221.59;5027937;28;20148;-79
2023/06/20 11:44:03;;;;;;;0.10;0.10;;;;;;;34.57;63.59;96216.78;4949449;28;20060;-78
2023/06/20 11:46:49;;;;;;;0.10;0.10;;;;;;;34.88;61.20;96223.25;5033004;28;20104;-78
2023/06/20 11:49:39;;;;;;;0.20;0.20;;;;;;;35.42;58.95;96226.25;5047799;28;20163;-78
2023/06/20 11:52:31;;;;;;;0.10;0.10;;;;;;;35.51;54.80;96220.97;5034716;28;20129;-78
2023/06/20 11:55:17;;;;;;;0.00;0.00;;;;;;;33.35;66.30;96224.25;5030882;28;20041;-78
2023/06/20 11:58:08;;;;;;;0.20;0.20;;;;;;;35.38;59.10;96219.91;5034245;28;20051;-78
2023/06/20 12:01:08;;;;;;;0.17;0.17;;;;;;;36.17;52.53;96216.88;5035952;28;20067;-78
2023/06/20 12:04:06;;;;;;;0.10;0.10;;;;;;;35.15;50.35;96213.03;5038022;28;20198;-79
2023/06/20 12:07:03;;;;;;;0.10;0.10;;;;;;;34.48;55.76;96213.72;5032838;28;20055;-79
2023/06/20 12:09:49;;;;;;;0.10;0.10;;;;;;;37.10;46.18;96213.28;5030044;28;20052;-79
2023/06/20 12:12:34;;;;;;;0.10;0.10;;;;;;;37.24;46.17;96201.84;5018349;28;20044;-79
2023/06/20 12:15:21;;;;;;;0.10;0.10;;;;;;;34.99;56.46;96212.03;5036009;28;20049;-79
2023/06/20 12:18:07;;;;;;;0.10;0.10;;;;;;;35.82;53.56;96215.38;5038656;28;21656;-80
2023/06/20 12:20:53;;;;;;;0.00;0.00;;;;;;;33.79;60.72;96207.03;5020786;28;20680;-80
2023/06/20 12:23:40;;;;;;;0.08;0.08;;;;;;;30.70;79.85;96216.75;5032952;28;20338;-80
2023/06/20 12:26:26;;;;;;;0.10;0.10;;;;;;;32.63;76.61;96205.06;5033576;28;20055;-80
2023/06/20 12:29:12;;;;;;;0.10;0.10;;;;;;;34.81;62.45;96199.09;5015817;28;20076;-80
2023/06/20 12:31:57;;;;;;;0.05;0.05;;;;;;;33.81;71.15;96188.00;4991858;28;20048;-80
2023/06/20 12:34:44;;;;;;;0.10;0.10;;;;;;;38.55;48.04;96197.34;5008923;28;20161;-81
2023/06/20 12:38:05;;;;;;;0.00;0.00;;;;;;;34.56;60.58;96204.91;5005043;28;20290;-81
2023/06/20 12:40:51;;;;;;;0.00;0.00;;;;;;;31.59;78.44;96209.66;4945354;28;20064;-80
2023/06/20 12:43:37;;;;;;;0.10;0.10;;;;;;;35.53;61.39;96193.50;5022148;28;20101;-81
2023/06/20 12:46:23;;;;;;;0.00;0.00;;;;;;;33.80;70.64;96183.63;5015316;28;20056;-81
2023/06/20 12:49:09;;;;;;;0.00;0.00;;;;;;;31.57;75.95;96189.13;5030326;28;20057;-81
2023/06/20 12:51:55;;;;;;;0.10;0.10;;;;;;;31.98;80.32;96186.06;5025613;28;20454;-81
2023/06/20 13:03:03;;;;;;;0.10;0.10;;;;;;;37.85;41.49;96190.22;4831537;28;20038;-81
2023/06/20 13:05:49;;;;;;;0.00;0.00;;;;;;;33.02;69.66;96193.13;4849825;28;20417;-81
2023/06/20 13:08:35;;;;;;;0.00;0.00;;;;;;;31.31;80.69;96196.56;5030907;28;20047;-81
2023/06/20 13:11:21;;;;;;;0.10;0.10;;;;;;;35.31;61.92;96186.63;5013778;28;20044;-80
2023/06/20 13:14:07;;;;;;;0.00;0.00;;;;;;;35.46;57.62;96190.81;5042637;28;20124;-81
2023/06/20 13:16:53;;;;;;;0.10;0.10;;;;;;;37.59;43.34;96186.41;5026815;28;20044;-81
2023/06/20 13:19:39;;;;;;;0.10;0.10;;;;;;;39.45;35.22;96179.72;5013473;28;20410;-81
2023/06/20 13:22:25;;;;;;;0.10;0.10;;;;;;;37.05;40.00;96188.72;5041293;28;20041;-81
2023/06/20 13:25:11;;;;;;;0.00;0.00;;;;;;;38.82;35.69;96179.50;5025609;28;20600;-80
2023/06/20 13:27:57;;;;;;;0.00;0.00;;;;;;;35.43;50.70;96195.25;5021204;28;20043;-81
2023/06/20 13:30:43;;;;;;;0.00;0.00;;;;;;;33.49;68.60;96190.97;5045858;28;20052;-81
2023/06/20 13:33:29;;;;;;;0.00;0.00;;;;;;;31.40;76.96;96190.66;5027078;28;20049;-80
2023/06/20 13:36:18;;;;;;;0.00;0.00;;;;;;;32.70;74.45;96187.63;5038899;28;20044;-81
2023/06/20 13:39:28;;;;;;;0.10;0.10;;;;;;;37.12;48.20;96179.41;4934676;28;20306;-80
2023/06/20 13:42:14;;;;;;;0.10;0.10;;;;;;;39.61;34.92;96166.88;5001221;28;20537;-80